createdAt,value
2023-06-24T00:09:13.161Z,17.97
2023-06-24T00:14:15.634Z,17.99
2023-06-24T00:19:16.533Z,18.01
2023-06-24T00:24:19.924Z,18.03
2023-06-24T00:29:21.272Z,18.01
2023-06-24T00:34:24.149Z,17.99
2023-06-24T00:39:25.090Z,18.00
2023-06-24T00:44:26.242Z,18.01
2023-06-24T00:49:27.118Z,18.03
2023-06-24T00:54:31.449Z,18.03
2023-06-24T00:59:33.351Z,18.05
2023-06-24T01:04:35.041Z,18.08
2023-06-24T01:09:36.470Z,18.10
2023-06-24T01:14:37.491Z,18.12
2023-06-24T01:19:47.504Z,18.14
2023-06-24T01:25:27.452Z,18.12
2023-06-24T01:31:22.274Z,18.10
2023-06-24T01:36:25.953Z,18.05
2023-06-24T01:41:53.336Z,18.00
2023-06-24T01:46:57.867Z,17.92
2023-06-24T01:52:01.217Z,17.85
2023-06-24T01:57:06.208Z,17.83
2023-06-24T02:02:08.582Z,17.82
2023-06-24T02:07:11.795Z,17.82
2023-06-24T02:12:13.121Z,17.83
2023-06-24T02:17:14.978Z,17.82
2023-06-24T02:22:17.440Z,17.80
2023-06-24T02:27:19.753Z,17.79
2023-06-24T02:32:20.672Z,17.78
2023-06-24T02:37:21.604Z,17.77
2023-06-24T02:42:22.618Z,17.76
2023-06-24T02:47:25.339Z,17.77
2023-06-24T02:52:29.340Z,17.81
2023-06-24T02:57:32.432Z,17.86
2023-06-24T03:02:33.597Z,17.95
2023-06-24T03:07:38.148Z,18.00
2023-06-24T03:12:39.049Z,18.07
2023-06-24T03:17:40.009Z,18.09
2023-06-24T03:22:40.894Z,18.14
2023-06-24T03:27:41.918Z,18.16
2023-06-24T03:32:47.357Z,18.19
2023-06-24T03:37:48.604Z,18.26
2023-06-24T03:42:49.458Z,18.33
2023-06-24T03:47:50.394Z,18.51
2023-06-24T03:52:51.368Z,18.70
2023-06-24T03:57:52.321Z,18.99
2023-06-24T04:02:53.788Z,19.34
2023-06-24T04:07:54.659Z,19.68
2023-06-24T04:12:55.786Z,19.88
2023-06-24T04:17:56.813Z,20.04
2023-06-24T04:22:58.702Z,20.21
2023-06-24T04:27:59.677Z,20.45
2023-06-24T04:33:00.569Z,20.60
2023-06-24T04:38:01.487Z,20.75
2023-06-24T04:43:06.451Z,20.60
2023-06-24T04:48:07.370Z,20.20
2023-06-24T04:53:08.468Z,20.17
2023-06-24T04:58:09.324Z,20.22
2023-06-24T05:03:10.228Z,20.34
2023-06-24T05:08:11.081Z,20.44
2023-06-24T05:13:11.938Z,20.47
2023-06-24T05:18:17.729Z,20.50
2023-06-24T05:23:18.829Z,20.53
2023-06-24T05:28:19.691Z,20.40
2023-06-24T05:33:20.553Z,20.55
2023-06-24T05:38:21.539Z,20.75
2023-06-24T05:43:22.470Z,20.92
2023-06-24T05:48:27.160Z,21.10
2023-06-24T05:53:28.024Z,21.16
2023-06-24T05:58:28.875Z,21.30
2023-06-24T06:03:55.846Z,21.31
2023-06-24T06:08:57.643Z,21.52
2023-06-24T06:13:58.483Z,21.80
2023-06-24T06:18:59.332Z,21.98
2023-06-24T06:24:02.968Z,22.48
2023-06-24T06:29:03.812Z,22.88
2023-06-24T06:34:04.698Z,22.89
2023-06-24T06:39:05.614Z,22.98
2023-06-24T06:44:07.521Z,22.83
2023-06-24T06:49:08.354Z,22.86
2023-06-24T06:54:09.269Z,22.93
2023-06-24T06:59:10.443Z,22.99
2023-06-24T07:04:11.526Z,22.84
2023-06-24T07:09:12.430Z,22.74
2023-06-24T07:14:13.337Z,22.63
2023-06-24T07:19:14.198Z,22.70
2023-06-24T07:24:15.057Z,22.85
2023-06-24T07:29:16.185Z,22.84
2023-06-24T07:34:18.150Z,22.97
2023-06-24T07:39:19.015Z,23.06
2023-06-24T07:44:20.057Z,23.07
2023-06-24T07:49:20.920Z,22.91
2023-06-24T07:54:21.855Z,23.11
2023-06-24T07:59:22.786Z,23.19
2023-06-24T08:04:23.768Z,23.15
2023-06-24T08:09:24.787Z,23.25
2023-06-24T08:14:25.674Z,23.43
2023-06-24T08:19:26.520Z,23.61
2023-06-24T08:24:27.443Z,23.90
2023-06-24T08:29:28.435Z,24.11
2023-06-24T08:34:29.300Z,24.33
2023-06-24T08:39:30.225Z,24.38
2023-06-24T08:44:31.065Z,24.37
2023-06-24T08:49:34.822Z,24.53
2023-06-24T08:54:36.946Z,24.38
2023-06-24T08:59:38.949Z,24.35
2023-06-24T09:04:41.330Z,24.23
2023-06-24T09:09:44.824Z,24.22
2023-06-24T09:14:50.585Z,24.49
2023-06-24T09:19:51.730Z,24.79
2023-06-24T09:24:54.446Z,25.04
2023-06-24T09:29:57.787Z,24.96
2023-06-24T09:35:00.296Z,24.86
2023-06-24T09:40:06.396Z,24.90
2023-06-24T09:45:08.117Z,24.95
2023-06-24T09:50:09.500Z,25.09
2023-06-24T09:55:13.111Z,24.81
2023-06-24T10:00:18.313Z,24.83
2023-06-24T10:05:19.466Z,25.05
2023-06-24T10:10:20.403Z,25.17
2023-06-24T10:15:23.020Z,25.16
2023-06-24T10:20:28.454Z,25.09
2023-06-24T10:25:37.133Z,25.03
2023-06-24T10:30:38.075Z,25.00
2023-06-24T10:35:44.205Z,24.86
2023-06-24T10:40:45.276Z,24.69
2023-06-24T10:45:50.778Z,24.59
2023-06-24T10:50:51.855Z,24.58
2023-06-24T10:55:52.777Z,24.53
2023-06-24T11:00:53.725Z,24.35
2023-06-24T11:05:54.593Z,24.31
2023-06-24T11:10:55.525Z,24.23
2023-06-24T11:16:00.412Z,24.08
2023-06-24T11:21:01.361Z,24.00
2023-06-24T11:26:03.537Z,24.14
2023-06-24T11:31:08.960Z,24.21
2023-06-24T11:36:12.917Z,24.19
2023-06-24T11:41:14.705Z,24.19
2023-06-24T11:46:34.296Z,24.16
2023-06-24T11:51:35.772Z,24.17
2023-06-24T11:56:40.613Z,24.19
2023-06-24T12:01:41.707Z,24.26
2023-06-24T12:06:43.656Z,24.36
2023-06-24T12:11:44.468Z,24.50
2023-06-24T12:16:45.392Z,24.52
2023-06-24T12:21:46.274Z,24.44
2023-06-24T12:26:47.690Z,24.36
2023-06-24T12:31:48.621Z,24.13
2023-06-24T12:36:49.579Z,24.12
2023-06-24T12:41:50.475Z,24.15
2023-06-24T12:46:51.366Z,24.01
2023-06-24T12:51:52.945Z,23.94
2023-06-24T12:57:02.205Z,23.97
2023-06-24T13:02:13.825Z,23.92
2023-06-24T13:07:16.770Z,23.86
2023-06-24T13:12:18.067Z,23.80
2023-06-24T13:17:19.257Z,23.81
2023-06-24T13:22:20.202Z,23.79
2023-06-24T13:27:21.096Z,23.76
2023-06-24T13:32:21.956Z,23.76
2023-06-24T13:37:22.846Z,23.61
2023-06-24T13:42:26.063Z,23.63
2023-06-24T13:47:27.352Z,23.54
2023-06-24T13:52:28.678Z,23.42
2023-06-24T13:57:29.532Z,23.62
2023-06-24T14:02:30.696Z,23.73
2023-06-24T14:07:31.915Z,23.99
2023-06-24T14:12:35.285Z,24.06
2023-06-24T14:17:36.299Z,24.23
2023-06-24T14:22:37.472Z,24.40
2023-06-24T14:27:38.658Z,24.55
2023-06-24T14:32:39.606Z,24.43
2023-06-24T14:37:42.338Z,24.29
2023-06-24T14:42:43.329Z,24.14
2023-06-24T14:47:45.097Z,24.01
2023-06-24T14:52:46.275Z,23.80
2023-06-24T14:57:47.123Z,23.54
2023-06-24T15:02:48.163Z,23.31
2023-06-24T15:07:49.224Z,23.22
2023-06-24T15:12:50.057Z,23.14
2023-06-24T15:17:51.096Z,22.99
2023-06-24T15:22:52.224Z,22.86
2023-06-24T15:27:53.113Z,22.77
2023-06-24T15:32:54.035Z,22.64
2023-06-24T15:37:54.966Z,22.46
2023-06-24T15:42:56.254Z,22.32
2023-06-24T15:47:57.267Z,22.19
2023-06-24T15:52:59.064Z,22.06
2023-06-24T15:58:00.131Z,21.88
2023-06-24T16:03:01.256Z,21.78
2023-06-24T16:08:02.836Z,21.65
2023-06-24T16:13:03.686Z,21.41
2023-06-24T16:18:04.883Z,21.18
2023-06-24T16:23:05.967Z,21.00
2023-06-24T16:28:08.121Z,20.80
2023-06-24T16:33:09.061Z,20.65
2023-06-24T16:38:10.012Z,20.57
2023-06-24T16:43:10.921Z,20.49
2023-06-24T16:48:11.816Z,20.48
2023-06-24T16:53:12.802Z,20.47
2023-06-24T16:58:13.738Z,20.50
2023-06-24T17:03:14.878Z,20.62
2023-06-24T17:08:15.866Z,20.77
2023-06-24T17:13:16.806Z,20.95
2023-06-24T17:18:17.755Z,21.03
2023-06-24T17:23:18.687Z,20.99
2023-06-24T17:28:20.451Z,20.92
2023-06-24T17:33:21.636Z,20.85
2023-06-24T17:38:22.832Z,20.85
2023-06-24T17:43:23.716Z,20.85
2023-06-24T17:48:24.702Z,20.85
2023-06-24T17:53:25.696Z,20.88
2023-06-24T17:58:26.792Z,20.87
2023-06-24T18:03:27.647Z,20.81
2023-06-24T18:08:28.788Z,20.73
2023-06-24T18:13:29.621Z,20.58
2023-06-24T18:18:30.497Z,20.48
2023-06-24T18:23:31.824Z,20.36
2023-06-24T18:28:32.769Z,20.18
2023-06-24T18:33:33.654Z,20.00
2023-06-24T18:38:34.525Z,19.82
2023-06-24T18:43:35.522Z,19.62
2023-06-24T18:48:38.180Z,19.40
2023-06-24T18:53:39.049Z,19.19
2023-06-24T18:58:39.953Z,19.03
2023-06-24T19:03:41.811Z,18.86
2023-06-24T19:08:44.142Z,18.65
2023-06-24T19:13:45.319Z,18.46
2023-06-24T19:18:46.455Z,18.33
2023-06-24T19:23:47.438Z,18.20
2023-06-24T19:28:49.017Z,18.08
2023-06-24T19:33:49.880Z,17.94
2023-06-24T19:38:50.759Z,17.79
2023-06-24T19:44:02.123Z,17.67
2023-06-24T19:49:03.088Z,17.53
2023-06-24T19:54:04.003Z,17.41
2023-06-24T19:59:04.979Z,17.31
2023-06-24T20:04:05.826Z,17.21
2023-06-24T20:09:09.121Z,17.13
2023-06-24T20:14:12.878Z,17.05
2023-06-24T20:19:13.883Z,16.97
2023-06-24T20:24:14.881Z,16.88
2023-06-24T20:29:15.863Z,16.81
2023-06-24T20:34:17.027Z,16.73
2023-06-24T20:39:17.883Z,16.66
2023-06-24T20:44:18.722Z,16.58
2023-06-24T20:49:19.570Z,16.52
2023-06-24T20:54:20.604Z,16.45
2023-06-24T20:59:21.437Z,16.39
2023-06-24T21:04:22.986Z,16.36
2023-06-24T21:09:24.137Z,16.31
2023-06-24T21:14:25.722Z,16.28
2023-06-24T21:19:26.561Z,16.25
2023-06-24T21:24:27.509Z,16.23
2023-06-24T21:29:28.401Z,16.18
2023-06-24T21:34:29.325Z,16.15
2023-06-24T21:39:30.162Z,16.11
2023-06-24T21:44:32.699Z,16.06
2023-06-24T21:49:34.006Z,16.01
2023-06-24T21:54:34.835Z,15.96
2023-06-24T21:59:35.664Z,15.90
2023-06-24T22:04:36.545Z,15.86
2023-06-24T22:09:37.748Z,15.80
2023-06-24T22:14:38.710Z,15.76
2023-06-24T22:19:39.553Z,15.74
2023-06-24T22:24:42.344Z,15.75
2023-06-24T22:29:43.116Z,15.75
2023-06-24T22:34:43.962Z,15.77
2023-06-24T22:39:44.813Z,15.78
2023-06-24T22:44:45.718Z,15.79
2023-06-24T22:49:46.587Z,15.78
2023-06-24T22:54:47.464Z,15.77
2023-06-24T22:59:48.326Z,15.75
2023-06-24T23:04:49.640Z,15.71
2023-06-24T23:09:54.070Z,15.69
2023-06-24T23:14:56.906Z,15.64
2023-06-24T23:19:59.335Z,15.59
2023-06-24T23:25:02.106Z,15.52
2023-06-24T23:30:12.671Z,15.46
2023-06-24T23:35:14.487Z,15.42
2023-06-24T23:40:15.488Z,15.40
2023-06-24T23:45:16.648Z,15.36
2023-06-24T23:50:17.492Z,15.31
2023-06-24T23:55:18.517Z,15.25
